sensor_id;sensor_type;location;lat;lon;timestamp;P1;durP1;ratioP1;P2;durP2;ratioP2
40611;SDS011;26317;44.894;20.286;2023-04-24T00:00:28;13.73;;;8.82;;
40611;SDS011;26317;44.894;20.286;2023-04-24T00:03:07;17.95;;;9.20;;
40611;SDS011;26317;44.894;20.286;2023-04-24T00:05:46;10.82;;;7.57;;
40611;SDS011;26317;44.894;20.286;2023-04-24T00:08:22;11.57;;;8.30;;
40611;SDS011;26317;44.894;20.286;2023-04-24T00:11:03;12.05;;;8.57;;
40611;SDS011;26317;44.894;20.286;2023-04-24T00:13:41;15.00;;;8.43;;
40611;SDS011;26317;44.894;20.286;2023-04-24T00:16:20;16.10;;;9.85;;
40611;SDS011;26317;44.894;20.286;2023-04-24T00:18:57;10.40;;;7.90;;
40611;SDS011;26317;44.894;20.286;2023-04-24T00:21:35;9.95;;;7.90;;
40611;SDS011;26317;44.894;20.286;2023-04-24T00:24:14;11.95;;;8.13;;
40611;SDS011;26317;44.894;20.286;2023-04-24T00:26:52;9.97;;;8.30;;
40611;SDS011;26317;44.894;20.286;2023-04-24T00:29:32;10.57;;;9.02;;
40611;SDS011;26317;44.894;20.286;2023-04-24T00:32:04;12.40;;;8.07;;
40611;SDS011;26317;44.894;20.286;2023-04-24T00:34:50;10.65;;;7.45;;
40611;SDS011;26317;44.894;20.286;2023-04-24T00:37:27;13.07;;;8.27;;
40611;SDS011;26317;44.894;20.286;2023-04-24T00:40:03;10.20;;;7.90;;
40611;SDS011;26317;44.894;20.286;2023-04-24T00:42:39;17.27;;;7.88;;
40611;SDS011;26317;44.894;20.286;2023-04-24T00:45:13;12.88;;;7.85;;
40611;SDS011;26317;44.894;20.286;2023-04-24T00:47:49;9.93;;;7.38;;
40611;SDS011;26317;44.894;20.286;2023-04-24T00:50:29;9.82;;;7.65;;
40611;SDS011;26317;44.894;20.286;2023-04-24T00:53:04;10.98;;;7.53;;
40611;SDS011;26317;44.894;20.286;2023-04-24T00:55:40;11.45;;;7.22;;
40611;SDS011;26317;44.894;20.286;2023-04-24T00:58:15;12.57;;;7.75;;
40611;SDS011;26317;44.894;20.286;2023-04-24T01:00:59;12.10;;;7.25;;
40611;SDS011;26317;44.894;20.286;2023-04-24T01:03:38;13.27;;;7.13;;
40611;SDS011;26317;44.894;20.286;2023-04-24T01:06:21;10.95;;;6.93;;
40611;SDS011;26317;44.894;20.286;2023-04-24T01:08:57;10.43;;;7.18;;
40611;SDS011;26317;44.894;20.286;2023-04-24T01:11:36;11.60;;;6.45;;
40611;SDS011;26317;44.894;20.286;2023-04-24T01:14:16;10.93;;;6.70;;
40611;SDS011;26317;44.894;20.286;2023-04-24T01:17:00;10.63;;;7.20;;
40611;SDS011;26317;44.894;20.286;2023-04-24T01:19:41;9.65;;;7.38;;
40611;SDS011;26317;44.894;20.286;2023-04-24T01:22:23;13.48;;;6.63;;
40611;SDS011;26317;44.894;20.286;2023-04-24T01:25:02;11.15;;;6.85;;
40611;SDS011;26317;44.894;20.286;2023-04-24T01:27:45;8.23;;;7.30;;
40611;SDS011;26317;44.894;20.286;2023-04-24T01:30:22;9.13;;;7.18;;
40611;SDS011;26317;44.894;20.286;2023-04-24T01:32:59;10.00;;;6.93;;
40611;SDS011;26317;44.894;20.286;2023-04-24T01:35:35;14.95;;;7.30;;
40611;SDS011;26317;44.894;20.286;2023-04-24T01:38:11;10.63;;;7.30;;
40611;SDS011;26317;44.894;20.286;2023-04-24T01:40:52;10.57;;;7.65;;
40611;SDS011;26317;44.894;20.286;2023-04-24T01:43:24;10.60;;;6.75;;
40611;SDS011;26317;44.894;20.286;2023-04-24T01:46:05;9.57;;;6.97;;
40611;SDS011;26317;44.894;20.286;2023-04-24T01:48:42;13.27;;;8.25;;
40611;SDS011;26317;44.894;20.286;2023-04-24T01:51:26;8.73;;;7.82;;
40611;SDS011;26317;44.894;20.286;2023-04-24T01:54:11;11.15;;;7.80;;
40611;SDS011;26317;44.894;20.286;2023-04-24T01:56:50;8.70;;;7.30;;
40611;SDS011;26317;44.894;20.286;2023-04-24T01:59:23;11.10;;;6.82;;
40611;SDS011;26317;44.894;20.286;2023-04-24T02:02:02;11.18;;;6.20;;
40611;SDS011;26317;44.894;20.286;2023-04-24T02:04:40;12.30;;;6.70;;
40611;SDS011;26317;44.894;20.286;2023-04-24T02:07:19;8.82;;;6.90;;
40611;SDS011;26317;44.894;20.286;2023-04-24T02:09:55;10.32;;;7.00;;
40611;SDS011;26317;44.894;20.286;2023-04-24T02:12:32;12.68;;;6.57;;
40611;SDS011;26317;44.894;20.286;2023-04-24T02:15:16;10.63;;;6.03;;
40611;SDS011;26317;44.894;20.286;2023-04-24T02:17:52;7.55;;;6.18;;
40611;SDS011;26317;44.894;20.286;2023-04-24T02:20:31;9.55;;;6.45;;
40611;SDS011;26317;44.894;20.286;2023-04-24T02:23:05;8.85;;;6.28;;
40611;SDS011;26317;44.894;20.286;2023-04-24T02:25:48;7.88;;;5.93;;
40611;SDS011;26317;44.894;20.286;2023-04-24T02:28:25;8.23;;;6.45;;
40611;SDS011;26317;44.894;20.286;2023-04-24T02:31:03;8.63;;;6.32;;
40611;SDS011;26317;44.894;20.286;2023-04-24T02:33:48;9.68;;;6.80;;
40611;SDS011;26317;44.894;20.286;2023-04-24T02:36:38;9.13;;;6.07;;
40611;SDS011;26317;44.894;20.286;2023-04-24T02:39:16;10.00;;;5.80;;
40611;SDS011;26317;44.894;20.286;2023-04-24T02:41:54;7.32;;;6.25;;
40611;SDS011;26317;44.894;20.286;2023-04-24T02:44:32;12.13;;;6.40;;
40611;SDS011;26317;44.894;20.286;2023-04-24T02:47:14;10.00;;;5.82;;
40611;SDS011;26317;44.894;20.286;2023-04-24T02:49:49;9.00;;;6.68;;
40611;SDS011;26317;44.894;20.286;2023-04-24T02:52:24;7.22;;;6.28;;
40611;SDS011;26317;44.894;20.286;2023-04-24T02:55:03;9.13;;;6.72;;
40611;SDS011;26317;44.894;20.286;2023-04-24T02:57:45;8.63;;;6.03;;
40611;SDS011;26317;44.894;20.286;2023-04-24T03:00:21;10.02;;;6.32;;
40611;SDS011;26317;44.894;20.286;2023-04-24T03:03:02;11.68;;;7.45;;
40611;SDS011;26317;44.894;20.286;2023-04-24T03:05:36;8.50;;;7.10;;
40611;SDS011;26317;44.894;20.286;2023-04-24T03:08:17;8.52;;;6.70;;
40611;SDS011;26317;44.894;20.286;2023-04-24T03:11:04;8.18;;;6.82;;
40611;SDS011;26317;44.894;20.286;2023-04-24T03:13:48;7.70;;;7.00;;
40611;SDS011;26317;44.894;20.286;2023-04-24T03:16:21;10.27;;;7.38;;
40611;SDS011;26317;44.894;20.286;2023-04-24T03:18:59;16.30;;;7.65;;
40611;SDS011;26317;44.894;20.286;2023-04-24T03:21:40;12.77;;;9.40;;
40611;SDS011;26317;44.894;20.286;2023-04-24T03:24:22;11.48;;;8.10;;
40611;SDS011;26317;44.894;20.286;2023-04-24T03:26:58;12.55;;;7.65;;
40611;SDS011;26317;44.894;20.286;2023-04-24T03:29:52;9.13;;;7.03;;
40611;SDS011;26317;44.894;20.286;2023-04-24T03:32:47;8.13;;;6.68;;
40611;SDS011;26317;44.894;20.286;2023-04-24T03:35:28;9.73;;;7.00;;
40611;SDS011;26317;44.894;20.286;2023-04-24T03:41:19;11.32;;;6.65;;
40611;SDS011;26317;44.894;20.286;2023-04-24T03:44:05;12.80;;;7.40;;
40611;SDS011;26317;44.894;20.286;2023-04-24T03:46:40;11.35;;;7.72;;
40611;SDS011;26317;44.894;20.286;2023-04-24T03:49:15;11.93;;;6.63;;
40611;SDS011;26317;44.894;20.286;2023-04-24T03:51:54;9.50;;;7.93;;
40611;SDS011;26317;44.894;20.286;2023-04-24T03:54:33;12.15;;;8.48;;
40611;SDS011;26317;44.894;20.286;2023-04-24T03:57:08;12.70;;;9.35;;
40611;SDS011;26317;44.894;20.286;2023-04-24T04:00:12;12.23;;;9.15;;
40611;SDS011;26317;44.894;20.286;2023-04-24T04:03:03;12.10;;;8.25;;
40611;SDS011;26317;44.894;20.286;2023-04-24T04:05:42;15.50;;;8.80;;
40611;SDS011;26317;44.894;20.286;2023-04-24T04:08:15;12.70;;;9.35;;
40611;SDS011;26317;44.894;20.286;2023-04-24T04:10:53;13.85;;;9.40;;
40611;SDS011;26317;44.894;20.286;2023-04-24T04:13:32;12.98;;;10.07;;
40611;SDS011;26317;44.894;20.286;2023-04-24T04:16:04;12.48;;;9.93;;
40611;SDS011;26317;44.894;20.286;2023-04-24T04:18:40;13.77;;;9.02;;
40611;SDS011;26317;44.894;20.286;2023-04-24T04:21:14;14.63;;;8.15;;
40611;SDS011;26317;44.894;20.286;2023-04-24T04:23:49;11.20;;;8.23;;
40611;SDS011;26317;44.894;20.286;2023-04-24T04:26:35;14.40;;;8.80;;
40611;SDS011;26317;44.894;20.286;2023-04-24T04:29:29;10.45;;;8.13;;
40611;SDS011;26317;44.894;20.286;2023-04-24T04:32:08;13.00;;;8.05;;
40611;SDS011;26317;44.894;20.286;2023-04-24T04:34:50;9.82;;;7.32;;
40611;SDS011;26317;44.894;20.286;2023-04-24T04:37:32;10.88;;;7.90;;
40611;SDS011;26317;44.894;20.286;2023-04-24T04:40:15;11.85;;;7.85;;
40611;SDS011;26317;44.894;20.286;2023-04-24T04:43:00;15.43;;;9.07;;
40611;SDS011;26317;44.894;20.286;2023-04-24T04:45:39;16.25;;;8.75;;
40611;SDS011;26317;44.894;20.286;2023-04-24T04:48:39;10.82;;;9.55;;
40611;SDS011;26317;44.894;20.286;2023-04-24T04:51:26;9.88;;;8.02;;
40611;SDS011;26317;44.894;20.286;2023-04-24T04:54:05;12.32;;;8.27;;
40611;SDS011;26317;44.894;20.286;2023-04-24T04:56:38;11.63;;;9.40;;
40611;SDS011;26317;44.894;20.286;2023-04-24T04:59:16;13.90;;;7.97;;
40611;SDS011;26317;44.894;20.286;2023-04-24T05:02:00;10.95;;;8.48;;
40611;SDS011;26317;44.894;20.286;2023-04-24T05:04:34;14.25;;;8.18;;
40611;SDS011;26317;44.894;20.286;2023-04-24T05:07:13;11.55;;;8.38;;
40611;SDS011;26317;44.894;20.286;2023-04-24T05:09:50;11.68;;;7.97;;
40611;SDS011;26317;44.894;20.286;2023-04-24T05:12:28;11.02;;;8.93;;
40611;SDS011;26317;44.894;20.286;2023-04-24T05:15:01;11.40;;;8.52;;
40611;SDS011;26317;44.894;20.286;2023-04-24T05:17:45;15.65;;;9.57;;
40611;SDS011;26317;44.894;20.286;2023-04-24T05:20:38;14.05;;;10.35;;
40611;SDS011;26317;44.894;20.286;2023-04-24T05:23:20;12.93;;;9.38;;
40611;SDS011;26317;44.894;20.286;2023-04-24T05:25:57;9.93;;;8.30;;
40611;SDS011;26317;44.894;20.286;2023-04-24T05:28:36;17.42;;;9.43;;
40611;SDS011;26317;44.894;20.286;2023-04-24T05:31:12;15.43;;;9.20;;
40611;SDS011;26317;44.894;20.286;2023-04-24T05:33:47;9.82;;;8.35;;
40611;SDS011;26317;44.894;20.286;2023-04-24T05:36:20;14.77;;;8.77;;
40611;SDS011;26317;44.894;20.286;2023-04-24T05:38:55;12.00;;;9.10;;
40611;SDS011;26317;44.894;20.286;2023-04-24T05:41:30;11.25;;;8.50;;
40611;SDS011;26317;44.894;20.286;2023-04-24T05:44:11;15.20;;;9.10;;
40611;SDS011;26317;44.894;20.286;2023-04-24T05:46:42;11.48;;;8.73;;
40611;SDS011;26317;44.894;20.286;2023-04-24T05:49:19;12.27;;;8.13;;
40611;SDS011;26317;44.894;20.286;2023-04-24T05:51:54;17.58;;;9.63;;
40611;SDS011;26317;44.894;20.286;2023-04-24T05:54:36;13.18;;;8.73;;
40611;SDS011;26317;44.894;20.286;2023-04-24T05:57:19;13.27;;;8.55;;
40611;SDS011;26317;44.894;20.286;2023-04-24T06:00:01;12.43;;;8.15;;
40611;SDS011;26317;44.894;20.286;2023-04-24T06:02:52;15.65;;;9.18;;
40611;SDS011;26317;44.894;20.286;2023-04-24T06:05:33;10.02;;;8.45;;
40611;SDS011;26317;44.894;20.286;2023-04-24T06:08:11;12.02;;;7.93;;
40611;SDS011;26317;44.894;20.286;2023-04-24T06:10:53;8.90;;;8.00;;
40611;SDS011;26317;44.894;20.286;2023-04-24T06:13:36;10.80;;;8.32;;
40611;SDS011;26317;44.894;20.286;2023-04-24T06:16:49;11.00;;;8.38;;
40611;SDS011;26317;44.894;20.286;2023-04-24T06:19:36;12.15;;;8.07;;
40611;SDS011;26317;44.894;20.286;2023-04-24T06:22:14;10.82;;;7.32;;
40611;SDS011;26317;44.894;20.286;2023-04-24T06:24:59;13.05;;;7.45;;
40611;SDS011;26317;44.894;20.286;2023-04-24T06:27:43;12.82;;;7.50;;
40611;SDS011;26317;44.894;20.286;2023-04-24T06:30:20;12.43;;;7.00;;
40611;SDS011;26317;44.894;20.286;2023-04-24T06:33:03;12.23;;;7.75;;
40611;SDS011;26317;44.894;20.286;2023-04-24T06:35:48;11.68;;;7.88;;
40611;SDS011;26317;44.894;20.286;2023-04-24T06:38:22;9.43;;;7.88;;
40611;SDS011;26317;44.894;20.286;2023-04-24T06:41:01;9.80;;;6.93;;
40611;SDS011;26317;44.894;20.286;2023-04-24T06:43:47;14.63;;;8.52;;
40611;SDS011;26317;44.894;20.286;2023-04-24T06:46:22;11.90;;;8.18;;
40611;SDS011;26317;44.894;20.286;2023-04-24T06:49:01;11.55;;;8.50;;
40611;SDS011;26317;44.894;20.286;2023-04-24T06:51:44;12.65;;;8.18;;
40611;SDS011;26317;44.894;20.286;2023-04-24T06:54:28;16.55;;;7.68;;
40611;SDS011;26317;44.894;20.286;2023-04-24T06:57:08;10.23;;;7.43;;
40611;SDS011;26317;44.894;20.286;2023-04-24T06:59:49;10.23;;;8.00;;
40611;SDS011;26317;44.894;20.286;2023-04-24T07:02:37;10.57;;;8.10;;
40611;SDS011;26317;44.894;20.286;2023-04-24T07:05:21;11.95;;;7.93;;
40611;SDS011;26317;44.894;20.286;2023-04-24T07:07:55;11.93;;;8.18;;
40611;SDS011;26317;44.894;20.286;2023-04-24T07:10:30;9.55;;;7.45;;
40611;SDS011;26317;44.894;20.286;2023-04-24T07:13:09;10.27;;;7.47;;
40611;SDS011;26317;44.894;20.286;2023-04-24T07:15:48;12.43;;;8.68;;
40611;SDS011;26317;44.894;20.286;2023-04-24T07:18:24;11.52;;;8.52;;
40611;SDS011;26317;44.894;20.286;2023-04-24T07:20:57;14.07;;;7.80;;
40611;SDS011;26317;44.894;20.286;2023-04-24T07:23:35;11.05;;;8.10;;
40611;SDS011;26317;44.894;20.286;2023-04-24T07:26:17;11.35;;;8.70;;
40611;SDS011;26317;44.894;20.286;2023-04-24T07:28:53;12.25;;;9.25;;
40611;SDS011;26317;44.894;20.286;2023-04-24T07:31:30;11.32;;;8.82;;
40611;SDS011;26317;44.894;20.286;2023-04-24T07:34:03;16.17;;;10.38;;
40611;SDS011;26317;44.894;20.286;2023-04-24T07:36:45;14.20;;;11.25;;
40611;SDS011;26317;44.894;20.286;2023-04-24T07:39:20;13.60;;;9.88;;
40611;SDS011;26317;44.894;20.286;2023-04-24T07:42:03;10.65;;;8.02;;
40611;SDS011;26317;44.894;20.286;2023-04-24T07:44:45;12.43;;;8.43;;
40611;SDS011;26317;44.894;20.286;2023-04-24T07:47:33;8.80;;;7.90;;
40611;SDS011;26317;44.894;20.286;2023-04-24T07:50:09;9.48;;;7.28;;
40611;SDS011;26317;44.894;20.286;2023-04-24T07:52:52;12.30;;;8.25;;
40611;SDS011;26317;44.894;20.286;2023-04-24T07:55:24;15.15;;;7.40;;
40611;SDS011;26317;44.894;20.286;2023-04-24T07:57:59;13.10;;;7.78;;
40611;SDS011;26317;44.894;20.286;2023-04-24T08:00:42;13.07;;;8.40;;
40611;SDS011;26317;44.894;20.286;2023-04-24T08:03:24;10.80;;;7.45;;
40611;SDS011;26317;44.894;20.286;2023-04-24T08:06:03;12.25;;;8.20;;
40611;SDS011;26317;44.894;20.286;2023-04-24T08:08:44;12.15;;;7.38;;
40611;SDS011;26317;44.894;20.286;2023-04-24T08:11:27;11.52;;;8.60;;
40611;SDS011;26317;44.894;20.286;2023-04-24T08:14:15;18.42;;;8.10;;
40611;SDS011;26317;44.894;20.286;2023-04-24T08:16:56;16.10;;;7.95;;
40611;SDS011;26317;44.894;20.286;2023-04-24T08:19:53;13.43;;;8.60;;
40611;SDS011;26317;44.894;20.286;2023-04-24T08:22:34;10.93;;;7.88;;
40611;SDS011;26317;44.894;20.286;2023-04-24T08:25:08;14.55;;;8.13;;
40611;SDS011;26317;44.894;20.286;2023-04-24T08:27:43;10.88;;;6.95;;
40611;SDS011;26317;44.894;20.286;2023-04-24T08:30:17;9.32;;;8.00;;
40611;SDS011;26317;44.894;20.286;2023-04-24T08:32:50;10.45;;;7.95;;
40611;SDS011;26317;44.894;20.286;2023-04-24T08:35:25;12.90;;;8.60;;
40611;SDS011;26317;44.894;20.286;2023-04-24T08:38:03;14.70;;;9.38;;
40611;SDS011;26317;44.894;20.286;2023-04-24T08:40:43;18.00;;;10.20;;
40611;SDS011;26317;44.894;20.286;2023-04-24T08:43:27;17.27;;;8.50;;
40611;SDS011;26317;44.894;20.286;2023-04-24T08:46:06;14.18;;;9.68;;
40611;SDS011;26317;44.894;20.286;2023-04-24T08:48:42;11.65;;;9.13;;
40611;SDS011;26317;44.894;20.286;2023-04-24T08:51:16;18.10;;;9.38;;
40611;SDS011;26317;44.894;20.286;2023-04-24T08:53:53;18.25;;;9.77;;
40611;SDS011;26317;44.894;20.286;2023-04-24T08:56:35;13.00;;;8.93;;
40611;SDS011;26317;44.894;20.286;2023-04-24T08:59:16;12.43;;;8.18;;
40611;SDS011;26317;44.894;20.286;2023-04-24T09:01:55;11.60;;;9.25;;
40611;SDS011;26317;44.894;20.286;2023-04-24T09:04:41;9.73;;;8.40;;
40611;SDS011;26317;44.894;20.286;2023-04-24T09:07:21;9.57;;;8.13;;
40611;SDS011;26317;44.894;20.286;2023-04-24T09:10:01;12.25;;;8.35;;
40611;SDS011;26317;44.894;20.286;2023-04-24T09:12:43;8.10;;;6.00;;
40611;SDS011;26317;44.894;20.286;2023-04-24T09:15:33;9.02;;;6.10;;
40611;SDS011;26317;44.894;20.286;2023-04-24T09:18:14;12.50;;;5.70;;
40611;SDS011;26317;44.894;20.286;2023-04-24T09:21:01;8.05;;;5.82;;
40611;SDS011;26317;44.894;20.286;2023-04-24T09:23:46;7.15;;;5.60;;
40611;SDS011;26317;44.894;20.286;2023-04-24T09:26:41;6.85;;;4.85;;
40611;SDS011;26317;44.894;20.286;2023-04-24T09:31:57;10.10;;;5.40;;
40611;SDS011;26317;44.894;20.286;2023-04-24T09:35:04;15.38;;;5.55;;
40611;SDS011;26317;44.894;20.286;2023-04-24T09:37:45;11.40;;;6.43;;
40611;SDS011;26317;44.894;20.286;2023-04-24T09:40:24;9.02;;;5.90;;
40611;SDS011;26317;44.894;20.286;2023-04-24T09:43:13;10.63;;;6.65;;
40611;SDS011;26317;44.894;20.286;2023-04-24T09:45:48;11.85;;;6.30;;
40611;SDS011;26317;44.894;20.286;2023-04-24T09:48:32;12.50;;;6.63;;
40611;SDS011;26317;44.894;20.286;2023-04-24T09:51:10;9.65;;;6.45;;
40611;SDS011;26317;44.894;20.286;2023-04-24T09:53:54;12.38;;;7.38;;
40611;SDS011;26317;44.894;20.286;2023-04-24T09:56:31;11.43;;;7.03;;
40611;SDS011;26317;44.894;20.286;2023-04-24T09:59:21;12.10;;;7.60;;
40611;SDS011;26317;44.894;20.286;2023-04-24T10:02:00;10.20;;;7.68;;
40611;SDS011;26317;44.894;20.286;2023-04-24T10:04:53;8.85;;;7.05;;
40611;SDS011;26317;44.894;20.286;2023-04-24T10:07:35;13.73;;;7.75;;
40611;SDS011;26317;44.894;20.286;2023-04-24T10:10:22;10.00;;;8.05;;
40611;SDS011;26317;44.894;20.286;2023-04-24T10:13:02;12.13;;;8.60;;
40611;SDS011;26317;44.894;20.286;2023-04-24T10:15:40;13.18;;;8.70;;
40611;SDS011;26317;44.894;20.286;2023-04-24T10:18:30;11.07;;;9.18;;
40611;SDS011;26317;44.894;20.286;2023-04-24T10:21:07;12.10;;;8.27;;
40611;SDS011;26317;44.894;20.286;2023-04-24T10:24:02;10.48;;;8.18;;
40611;SDS011;26317;44.894;20.286;2023-04-24T10:26:41;6.90;;;6.20;;
40611;SDS011;26317;44.894;20.286;2023-04-24T10:29:31;10.52;;;6.07;;
40611;SDS011;26317;44.894;20.286;2023-04-24T10:32:07;7.93;;;5.55;;
40611;SDS011;26317;44.894;20.286;2023-04-24T10:34:43;8.80;;;6.22;;
40611;SDS011;26317;44.894;20.286;2023-04-24T10:37:29;11.00;;;5.22;;
40611;SDS011;26317;44.894;20.286;2023-04-24T10:40:16;6.60;;;6.00;;
40611;SDS011;26317;44.894;20.286;2023-04-24T10:42:56;10.23;;;6.82;;
40611;SDS011;26317;44.894;20.286;2023-04-24T10:45:40;9.57;;;5.38;;
40611;SDS011;26317;44.894;20.286;2023-04-24T10:48:44;8.88;;;5.30;;
40611;SDS011;26317;44.894;20.286;2023-04-24T10:51:46;9.15;;;5.47;;
40611;SDS011;26317;44.894;20.286;2023-04-24T10:54:25;8.13;;;6.00;;
40611;SDS011;26317;44.894;20.286;2023-04-24T11:00:15;11.00;;;5.72;;
40611;SDS011;26317;44.894;20.286;2023-04-24T11:03:04;7.90;;;6.05;;
40611;SDS011;26317;44.894;20.286;2023-04-24T11:06:02;7.73;;;5.43;;
40611;SDS011;26317;44.894;20.286;2023-04-24T11:08:42;8.25;;;5.72;;
40611;SDS011;26317;44.894;20.286;2023-04-24T11:11:17;8.80;;;5.72;;
40611;SDS011;26317;44.894;20.286;2023-04-24T11:16:45;8.38;;;4.80;;
40611;SDS011;26317;44.894;20.286;2023-04-24T11:19:33;8.77;;;4.65;;
40611;SDS011;26317;44.894;20.286;2023-04-24T11:22:15;6.35;;;4.85;;
40611;SDS011;26317;44.894;20.286;2023-04-24T11:25:13;9.32;;;5.25;;
40611;SDS011;26317;44.894;20.286;2023-04-24T11:27:52;8.98;;;5.32;;
40611;SDS011;26317;44.894;20.286;2023-04-24T11:30:37;11.23;;;5.95;;
40611;SDS011;26317;44.894;20.286;2023-04-24T11:33:19;9.50;;;6.00;;
40611;SDS011;26317;44.894;20.286;2023-04-24T11:35:56;7.63;;;5.32;;
40611;SDS011;26317;44.894;20.286;2023-04-24T11:38:38;6.63;;;4.97;;
40611;SDS011;26317;44.894;20.286;2023-04-24T11:41:22;6.93;;;5.55;;
40611;SDS011;26317;44.894;20.286;2023-04-24T11:43:59;9.52;;;5.35;;
40611;SDS011;26317;44.894;20.286;2023-04-24T11:46:38;7.88;;;5.78;;
40611;SDS011;26317;44.894;20.286;2023-04-24T11:49:20;10.13;;;5.70;;
40611;SDS011;26317;44.894;20.286;2023-04-24T11:51:57;10.20;;;6.80;;
40611;SDS011;26317;44.894;20.286;2023-04-24T11:57:11;10.52;;;7.10;;
40611;SDS011;26317;44.894;20.286;2023-04-24T11:59:45;13.50;;;7.95;;
40611;SDS011;26317;44.894;20.286;2023-04-24T12:02:20;9.27;;;6.07;;
40611;SDS011;26317;44.894;20.286;2023-04-24T12:05:01;8.85;;;5.88;;
40611;SDS011;26317;44.894;20.286;2023-04-24T12:07:43;9.35;;;6.50;;
40611;SDS011;26317;44.894;20.286;2023-04-24T12:10:19;13.27;;;6.60;;
40611;SDS011;26317;44.894;20.286;2023-04-24T12:12:53;10.60;;;6.40;;
40611;SDS011;26317;44.894;20.286;2023-04-24T12:15:28;9.52;;;6.55;;
40611;SDS011;26317;44.894;20.286;2023-04-24T12:18:00;15.95;;;7.45;;
40611;SDS011;26317;44.894;20.286;2023-04-24T12:20:40;12.07;;;7.43;;
40611;SDS011;26317;44.894;20.286;2023-04-24T12:23:29;10.38;;;7.20;;
40611;SDS011;26317;44.894;20.286;2023-04-24T12:26:21;10.88;;;8.25;;
40611;SDS011;26317;44.894;20.286;2023-04-24T12:29:01;9.05;;;8.15;;
40611;SDS011;26317;44.894;20.286;2023-04-24T12:31:43;12.35;;;7.95;;
40611;SDS011;26317;44.894;20.286;2023-04-24T12:34:20;11.23;;;8.65;;
40611;SDS011;26317;44.894;20.286;2023-04-24T12:36:55;11.10;;;7.93;;
40611;SDS011;26317;44.894;20.286;2023-04-24T12:39:50;9.80;;;8.30;;
40611;SDS011;26317;44.894;20.286;2023-04-24T12:42:48;11.35;;;9.18;;
40611;SDS011;26317;44.894;20.286;2023-04-24T12:45:26;11.75;;;10.55;;
40611;SDS011;26317;44.894;20.286;2023-04-24T12:48:07;13.27;;;9.88;;
40611;SDS011;26317;44.894;20.286;2023-04-24T12:51:02;16.63;;;10.70;;
40611;SDS011;26317;44.894;20.286;2023-04-24T12:56:32;13.32;;;10.23;;
40611;SDS011;26317;44.894;20.286;2023-04-24T12:59:09;13.10;;;10.18;;
40611;SDS011;26317;44.894;20.286;2023-04-24T13:01:45;16.35;;;9.60;;
40611;SDS011;26317;44.894;20.286;2023-04-24T13:04:18;13.93;;;10.65;;
40611;SDS011;26317;44.894;20.286;2023-04-24T13:09:36;11.20;;;9.32;;
40611;SDS011;26317;44.894;20.286;2023-04-24T13:12:16;12.73;;;9.40;;
40611;SDS011;26317;44.894;20.286;2023-04-24T13:14:54;13.40;;;10.15;;
40611;SDS011;26317;44.894;20.286;2023-04-24T13:17:48;10.85;;;9.05;;
40611;SDS011;26317;44.894;20.286;2023-04-24T13:20:29;11.82;;;9.13;;
40611;SDS011;26317;44.894;20.286;2023-04-24T13:23:08;10.23;;;8.95;;
40611;SDS011;26317;44.894;20.286;2023-04-24T13:25:41;13.00;;;9.38;;
40611;SDS011;26317;44.894;20.286;2023-04-24T13:28:25;14.55;;;9.38;;
40611;SDS011;26317;44.894;20.286;2023-04-24T13:31:00;12.48;;;8.70;;
40611;SDS011;26317;44.894;20.286;2023-04-24T13:33:37;10.15;;;8.60;;
40611;SDS011;26317;44.894;20.286;2023-04-24T13:36:12;13.13;;;8.60;;
40611;SDS011;26317;44.894;20.286;2023-04-24T13:38:47;14.48;;;9.02;;
40611;SDS011;26317;44.894;20.286;2023-04-24T13:41:38;14.07;;;8.65;;
40611;SDS011;26317;44.894;20.286;2023-04-24T13:44:18;9.48;;;7.35;;
40611;SDS011;26317;44.894;20.286;2023-04-24T13:47:00;12.32;;;8.40;;
40611;SDS011;26317;44.894;20.286;2023-04-24T13:49:34;11.35;;;9.05;;
40611;SDS011;26317;44.894;20.286;2023-04-24T13:52:14;15.73;;;9.90;;
40611;SDS011;26317;44.894;20.286;2023-04-24T13:54:50;16.33;;;7.65;;
40611;SDS011;26317;44.894;20.286;2023-04-24T13:57:35;11.60;;;7.63;;
40611;SDS011;26317;44.894;20.286;2023-04-24T14:00:18;11.45;;;6.43;;
40611;SDS011;26317;44.894;20.286;2023-04-24T14:03:02;6.88;;;5.43;;
40611;SDS011;26317;44.894;20.286;2023-04-24T14:05:45;11.43;;;6.97;;
40611;SDS011;26317;44.894;20.286;2023-04-24T14:08:21;9.80;;;5.03;;
40611;SDS011;26317;44.894;20.286;2023-04-24T14:10:58;8.70;;;5.78;;
40611;SDS011;26317;44.894;20.286;2023-04-24T14:13:38;6.13;;;4.13;;
40611;SDS011;26317;44.894;20.286;2023-04-24T14:16:22;6.90;;;4.10;;
40611;SDS011;26317;44.894;20.286;2023-04-24T14:18:57;7.45;;;5.32;;
40611;SDS011;26317;44.894;20.286;2023-04-24T14:21:34;6.50;;;3.80;;
40611;SDS011;26317;44.894;20.286;2023-04-24T14:24:05;3.47;;;3.17;;
40611;SDS011;26317;44.894;20.286;2023-04-24T14:26:43;4.65;;;3.83;;
40611;SDS011;26317;44.894;20.286;2023-04-24T14:29:18;4.75;;;3.58;;
40611;SDS011;26317;44.894;20.286;2023-04-24T14:31:59;6.47;;;3.38;;
40611;SDS011;26317;44.894;20.286;2023-04-24T14:34:37;4.30;;;3.22;;
40611;SDS011;26317;44.894;20.286;2023-04-24T14:37:20;7.35;;;3.10;;
40611;SDS011;26317;44.894;20.286;2023-04-24T14:40:02;4.25;;;2.90;;
40611;SDS011;26317;44.894;20.286;2023-04-24T14:43:00;4.32;;;3.42;;
40611;SDS011;26317;44.894;20.286;2023-04-24T14:45:51;4.20;;;3.60;;
40611;SDS011;26317;44.894;20.286;2023-04-24T14:48:31;4.68;;;3.65;;
40611;SDS011;26317;44.894;20.286;2023-04-24T14:51:14;4.90;;;3.40;;
40611;SDS011;26317;44.894;20.286;2023-04-24T14:53:52;4.80;;;3.45;;
40611;SDS011;26317;44.894;20.286;2023-04-24T14:56:34;7.65;;;3.25;;
40611;SDS011;26317;44.894;20.286;2023-04-24T14:59:11;7.80;;;3.63;;
40611;SDS011;26317;44.894;20.286;2023-04-24T15:01:48;8.57;;;4.20;;
40611;SDS011;26317;44.894;20.286;2023-04-24T15:04:52;6.40;;;3.65;;
40611;SDS011;26317;44.894;20.286;2023-04-24T15:07:30;4.55;;;3.50;;
40611;SDS011;26317;44.894;20.286;2023-04-24T15:10:08;5.10;;;3.58;;
40611;SDS011;26317;44.894;20.286;2023-04-24T15:12:44;4.78;;;3.30;;
40611;SDS011;26317;44.894;20.286;2023-04-24T15:15:18;4.70;;;3.25;;
40611;SDS011;26317;44.894;20.286;2023-04-24T15:20:49;4.78;;;3.78;;
40611;SDS011;26317;44.894;20.286;2023-04-24T15:26:03;6.35;;;3.22;;
40611;SDS011;26317;44.894;20.286;2023-04-24T15:28:40;3.45;;;3.15;;
40611;SDS011;26317;44.894;20.286;2023-04-24T15:31:18;4.97;;;3.78;;
40611;SDS011;26317;44.894;20.286;2023-04-24T15:33:55;5.38;;;3.80;;
40611;SDS011;26317;44.894;20.286;2023-04-24T15:36:34;6.65;;;3.40;;
40611;SDS011;26317;44.894;20.286;2023-04-24T15:39:14;6.80;;;3.90;;
40611;SDS011;26317;44.894;20.286;2023-04-24T15:41:58;7.47;;;5.18;;
40611;SDS011;26317;44.894;20.286;2023-04-24T15:44:40;6.90;;;4.55;;
40611;SDS011;26317;44.894;20.286;2023-04-24T15:47:38;7.20;;;4.63;;
40611;SDS011;26317;44.894;20.286;2023-04-24T15:50:15;6.88;;;5.72;;
40611;SDS011;26317;44.894;20.286;2023-04-24T15:52:56;9.98;;;5.80;;
40611;SDS011;26317;44.894;20.286;2023-04-24T15:55:35;9.80;;;5.03;;
40611;SDS011;26317;44.894;20.286;2023-04-24T15:58:12;6.47;;;4.93;;
40611;SDS011;26317;44.894;20.286;2023-04-24T16:00:49;5.07;;;4.47;;
40611;SDS011;26317;44.894;20.286;2023-04-24T16:03:29;4.55;;;3.90;;
40611;SDS011;26317;44.894;20.286;2023-04-24T16:06:04;4.90;;;3.75;;
40611;SDS011;26317;44.894;20.286;2023-04-24T16:08:50;4.25;;;3.85;;